Time;durP1;ratioP1;P1;durP2;ratioP2;P2;SDS_P1;SDS_P2;PMS_P1;PMS_P2;Temp;Humidity;BMP_temperature;BMP_pressure;BME280_temperature;BME280_humidity;BME280_pressure;Samples;Min_cycle;Max_cycle;Signal;HPM_P1;HPM_P2
2023/03/21 00:00:46;;;;;;;13.55;9.05;;;;;;;;;;5004509;28;20509;-81
2023/03/21 00:03:13;;;;;;;14.82;8.88;;;;;;;;;;4996844;28;20050;-80
2023/03/21 00:05:48;;;;;;;12.18;8.65;;;;;;;;;;4997413;28;20041;-80
2023/03/21 00:08:14;;;;;;;13.00;8.88;;;;;;;;;;5007620;28;20022;-80
2023/03/21 00:10:40;;;;;;;15.30;9.95;;;;;;;;;;5015936;28;20049;-80
2023/03/21 00:13:06;;;;;;;12.93;9.38;;;;;;;;;;5003249;28;20084;-80
2023/03/21 00:15:33;;;;;;;15.77;10.32;;;;;;;;;;5010829;28;20072;-80
2023/03/21 00:18:02;;;;;;;14.43;9.68;;;;;;;;;;5000407;28;20091;-80
2023/03/21 00:20:33;;;;;;;15.18;10.32;;;;;;;;;;5014216;28;20497;-80
2023/03/21 00:23:00;;;;;;;17.00;11.07;;;;;;;;;;5004496;28;20026;-80
2023/03/21 00:25:26;;;;;;;16.30;10.48;;;;;;;;;;4996623;28;20054;-80
2023/03/21 00:27:52;;;;;;;15.63;9.95;;;;;;;;;;4996989;28;20445;-81
2023/03/21 00:30:18;;;;;;;16.00;10.10;;;;;;;;;;4994351;28;20045;-81
2023/03/21 00:32:46;;;;;;;16.25;10.20;;;;;;;;;;5014659;28;20029;-80
2023/03/21 00:35:12;;;;;;;14.90;10.27;;;;;;;;;;5001732;28;20105;-80
2023/03/21 00:37:38;;;;;;;16.27;9.60;;;;;;;;;;4996002;28;20057;-81
2023/03/21 00:40:08;;;;;;;15.15;10.32;;;;;;;;;;5009290;28;20030;-80
2023/03/21 00:42:35;;;;;;;14.82;10.23;;;;;;;;;;5013294;28;20113;-80
2023/03/21 00:45:01;;;;;;;17.08;10.75;;;;;;;;;;5001932;28;20478;-80
2023/03/21 00:47:27;;;;;;;14.18;10.35;;;;;;;;;;5006643;28;20076;-81
2023/03/21 00:49:53;;;;;;;16.02;10.10;;;;;;;;;;5009301;28;20030;-79
2023/03/21 00:52:19;;;;;;;16.50;11.07;;;;;;;;;;5011529;28;20505;-80
2023/03/21 00:54:45;;;;;;;13.52;9.75;;;;;;;;;;5004586;28;20105;-80
2023/03/21 00:57:11;;;;;;;13.55;9.00;;;;;;;;;;5001750;28;20045;-80
2023/03/21 00:59:37;;;;;;;12.80;9.18;;;;;;;;;;4997591;28;20034;-79
2023/03/21 01:02:06;;;;;;;13.52;8.52;;;;;;;;;;4995692;28;20054;-80
2023/03/21 01:04:33;;;;;;;12.85;7.82;;;;;;;;;;5011714;28;20044;-80
2023/03/21 01:06:59;;;;;;;13.43;8.32;;;;;;;;;;5004516;28;20394;-80
2023/03/21 01:09:25;;;;;;;13.20;8.52;;;;;;;;;;5015355;28;20285;-80
2023/03/21 01:11:52;;;;;;;13.23;9.13;;;;;;;;;;5013744;28;20041;-80
2023/03/21 01:14:19;;;;;;;13.77;9.38;;;;;;;;;;5009012;28;20059;-80
2023/03/21 01:16:45;;;;;;;15.95;9.05;;;;;;;;;;5000632;28;20466;-80
2023/03/21 01:19:12;;;;;;;15.32;9.25;;;;;;;;;;5012049;28;20033;-80
2023/03/21 01:21:39;;;;;;;16.73;10.13;;;;;;;;;;4999952;28;20144;-79
2023/03/21 01:24:06;;;;;;;16.52;10.73;;;;;;;;;;5002557;28;20030;-80
2023/03/21 01:26:32;;;;;;;15.75;9.82;;;;;;;;;;5009412;28;20406;-79
2023/03/21 01:28:58;;;;;;;14.93;9.80;;;;;;;;;;4998861;28;20037;-79
2023/03/21 01:31:24;;;;;;;13.65;9.00;;;;;;;;;;5015004;28;20068;-79
2023/03/21 01:33:50;;;;;;;14.15;8.88;;;;;;;;;;4999382;28;20054;-79
2023/03/21 01:36:23;;;;;;;14.73;9.70;;;;;;;;;;5015462;28;20088;-79
2023/03/21 01:38:50;;;;;;;15.07;9.40;;;;;;;;;;5005276;28;20018;-80
2023/03/21 01:41:39;;;;;;;15.02;8.77;;;;;;;;;;5018281;28;20474;-79
2023/03/21 01:44:06;;;;;;;15.15;9.43;;;;;;;;;;4996152;28;20088;-79
2023/03/21 01:46:48;;;;;;;15.00;9.52;;;;;;;;;;5003223;28;20022;-79
2023/03/21 01:49:23;;;;;;;13.43;8.70;;;;;;;;;;5017844;28;20091;-79
2023/03/21 01:52:10;;;;;;;13.82;8.90;;;;;;;;;;5002796;28;20508;-79
2023/03/21 01:54:37;;;;;;;12.82;8.52;;;;;;;;;;4999437;28;20069;-80
2023/03/21 01:57:05;;;;;;;14.73;9.10;;;;;;;;;;4999281;28;20497;-80
2023/03/21 01:59:37;;;;;;;13.70;9.07;;;;;;;;;;5017479;28;20489;-80
2023/03/21 02:02:06;;;;;;;12.40;8.43;;;;;;;;;;5019759;28;20492;-79
2023/03/21 02:04:32;;;;;;;15.88;9.05;;;;;;;;;;5010798;28;20025;-79
2023/03/21 02:07:02;;;;;;;12.52;8.80;;;;;;;;;;5014830;28;20053;-79
2023/03/21 02:09:32;;;;;;;13.15;8.98;;;;;;;;;;4998104;28;20498;-79
2023/03/21 02:11:58;;;;;;;13.73;8.90;;;;;;;;;;4996648;28;20026;-78
2023/03/21 02:14:24;;;;;;;14.48;9.25;;;;;;;;;;5005502;28;20030;-79
2023/03/21 02:17:03;;;;;;;14.20;9.27;;;;;;;;;;5012546;28;20037;-79
2023/03/21 02:20:07;;;;;;;13.90;9.75;;;;;;;;;;5003653;28;20486;-80
2023/03/21 02:22:36;;;;;;;12.57;8.52;;;;;;;;;;4987362;28;20058;-80
2023/03/21 02:25:02;;;;;;;13.23;9.10;;;;;;;;;;5008116;28;20489;-80
2023/03/21 02:27:30;;;;;;;13.48;9.05;;;;;;;;;;5008080;28;20072;-80
2023/03/21 02:30:12;;;;;;;13.00;8.88;;;;;;;;;;4997245;28;20105;-80
2023/03/21 02:32:56;;;;;;;12.65;8.68;;;;;;;;;;4998935;28;20026;-80
2023/03/21 02:35:41;;;;;;;15.02;9.48;;;;;;;;;;5011665;28;20049;-79
2023/03/21 02:38:15;;;;;;;14.38;8.93;;;;;;;;;;5003198;28;20234;-80
2023/03/21 02:40:52;;;;;;;12.27;8.85;;;;;;;;;;5008104;28;20033;-79
2023/03/21 02:43:39;;;;;;;13.95;9.10;;;;;;;;;;5017976;28;20029;-79
2023/03/21 02:46:08;;;;;;;14.52;9.95;;;;;;;;;;5000029;28;20034;-80
2023/03/21 02:48:38;;;;;;;14.07;9.30;;;;;;;;;;5003514;28;20037;-80
2023/03/21 02:51:04;;;;;;;13.48;9.48;;;;;;;;;;5016429;28;20104;-80
2023/03/21 02:53:36;;;;;;;12.75;9.05;;;;;;;;;;5015981;28;20087;-79
2023/03/21 02:56:06;;;;;;;14.23;9.05;;;;;;;;;;5002122;28;20022;-80
2023/03/21 02:58:32;;;;;;;14.82;9.00;;;;;;;;;;5017158;28;20017;-80
2023/03/21 03:00:58;;;;;;;14.23;9.45;;;;;;;;;;5014217;28;20086;-80
2023/03/21 03:03:25;;;;;;;15.40;10.75;;;;;;;;;;5016620;28;20526;-80
2023/03/21 03:05:56;;;;;;;15.60;9.82;;;;;;;;;;4998765;28;20027;-80
2023/03/21 03:08:41;;;;;;;15.38;10.55;;;;;;;;;;4997722;28;20076;-80
2023/03/21 03:11:27;;;;;;;14.07;9.80;;;;;;;;;;4997723;28;20026;-80
2023/03/21 03:14:01;;;;;;;15.13;10.15;;;;;;;;;;5016254;28;20022;-80
2023/03/21 03:16:39;;;;;;;15.65;10.95;;;;;;;;;;5004092;28;20026;-80
2023/03/21 03:19:08;;;;;;;14.95;10.70;;;;;;;;;;4997515;28;20117;-80
2023/03/21 03:21:53;;;;;;;15.52;10.38;;;;;;;;;;4997461;28;20027;-80
2023/03/21 03:24:24;;;;;;;15.68;10.30;;;;;;;;;;4997038;28;20030;-80
2023/03/21 03:27:03;;;;;;;15.35;10.35;;;;;;;;;;5006850;28;20034;-80
2023/03/21 03:29:31;;;;;;;14.23;9.68;;;;;;;;;;5015981;28;20421;-80
2023/03/21 03:32:00;;;;;;;16.52;10.05;;;;;;;;;;5016767;28;20029;-80
2023/03/21 03:34:33;;;;;;;14.98;11.00;;;;;;;;;;5016662;28;20032;-80
2023/03/21 03:37:03;;;;;;;14.75;9.93;;;;;;;;;;5006832;28;20112;-79
2023/03/21 03:39:37;;;;;;;14.95;10.32;;;;;;;;;;4996500;28;20021;-80
2023/03/21 03:42:06;;;;;;;15.82;10.38;;;;;;;;;;5006853;28;20332;-79
2023/03/21 03:44:33;;;;;;;18.40;10.65;;;;;;;;;;5013712;28;20030;-79
2023/03/21 03:47:05;;;;;;;15.68;10.07;;;;;;;;;;5008717;28;20022;-78
2023/03/21 03:49:36;;;;;;;14.95;9.65;;;;;;;;;;5002188;28;20026;-79
2023/03/21 03:52:06;;;;;;;15.80;10.00;;;;;;;;;;5015902;28;20036;-79
2023/03/21 03:54:43;;;;;;;14.50;10.13;;;;;;;;;;5007928;28;20116;-79
2023/03/21 03:57:11;;;;;;;14.38;9.38;;;;;;;;;;4999101;28;20027;-80
2023/03/21 03:59:38;;;;;;;15.63;10.35;;;;;;;;;;5015468;28;20022;-78
2023/03/21 04:02:04;;;;;;;13.20;9.35;;;;;;;;;;5004463;28;20054;-79
2023/03/21 04:04:30;;;;;;;14.15;9.52;;;;;;;;;;5005328;28;20106;-79
2023/03/21 04:06:57;;;;;;;15.02;10.75;;;;;;;;;;4995200;28;20101;-80
2023/03/21 04:09:24;;;;;;;14.18;9.63;;;;;;;;;;4996133;28;20038;-80
2023/03/21 04:11:50;;;;;;;14.93;10.10;;;;;;;;;;4995183;28;20394;-79
2023/03/21 04:14:16;;;;;;;13.80;9.77;;;;;;;;;;4995359;28;20513;-81
2023/03/21 04:16:42;;;;;;;15.40;10.55;;;;;;;;;;4996610;28;20030;-80
2023/03/21 04:19:08;;;;;;;15.02;10.23;;;;;;;;;;4994250;28;20395;-80
2023/03/21 04:21:34;;;;;;;16.75;10.27;;;;;;;;;;5013455;28;20033;-80
2023/03/21 04:24:00;;;;;;;13.52;9.30;;;;;;;;;;5013286;28;20033;-80
2023/03/21 04:26:31;;;;;;;14.85;10.20;;;;;;;;;;5005007;28;20041;-80
2023/03/21 04:28:59;;;;;;;14.23;9.02;;;;;;;;;;4995678;28;20023;-80
2023/03/21 04:31:29;;;;;;;13.10;9.20;;;;;;;;;;5003927;28;20029;-81
2023/03/21 04:33:55;;;;;;;13.95;9.00;;;;;;;;;;4995329;28;20033;-81
2023/03/21 04:36:27;;;;;;;15.65;9.98;;;;;;;;;;5002269;28;20026;-80
2023/03/21 04:38:53;;;;;;;16.55;10.63;;;;;;;;;;5011207;28;20018;-81
2023/03/21 04:41:20;;;;;;;17.25;10.93;;;;;;;;;;5006982;28;20032;-81
2023/03/21 04:43:46;;;;;;;16.90;11.35;;;;;;;;;;4998460;28;20065;-82
2023/03/21 04:46:12;;;;;;;16.83;11.25;;;;;;;;;;5004805;28;20066;-81
2023/03/21 04:48:38;;;;;;;19.55;10.93;;;;;;;;;;5015393;28;20029;-81
2023/03/21 04:51:04;;;;;;;16.52;11.02;;;;;;;;;;5010790;28;20482;-81
2023/03/21 04:53:31;;;;;;;16.60;10.77;;;;;;;;;;5016405;28;20041;-82
2023/03/21 04:55:57;;;;;;;15.60;10.43;;;;;;;;;;5006487;28;20026;-82
2023/03/21 04:58:23;;;;;;;16.40;10.10;;;;;;;;;;5007487;28;20086;-82
2023/03/21 05:00:51;;;;;;;16.00;10.43;;;;;;;;;;4998665;28;20072;-82
2023/03/21 05:03:19;;;;;;;16.13;10.68;;;;;;;;;;4999523;28;20046;-81
2023/03/21 05:05:45;;;;;;;15.20;9.32;;;;;;;;;;5007322;28;20162;-82
2023/03/21 05:08:12;;;;;;;16.38;10.07;;;;;;;;;;5004586;28;20062;-82
2023/03/21 05:10:38;;;;;;;15.55;9.55;;;;;;;;;;5030060;28;20018;-82
2023/03/21 05:13:04;;;;;;;15.77;10.20;;;;;;;;;;5004322;28;20390;-82
2023/03/21 05:15:30;;;;;;;14.65;9.75;;;;;;;;;;5006757;28;20029;-82
2023/03/21 05:17:57;;;;;;;15.55;9.80;;;;;;;;;;5006243;28;20430;-83
2023/03/21 05:20:24;;;;;;;15.82;9.80;;;;;;;;;;5002255;28;20053;-83
2023/03/21 05:22:50;;;;;;;16.30;10.20;;;;;;;;;;5003285;28;20026;-83
2023/03/21 05:25:19;;;;;;;15.38;9.75;;;;;;;;;;5000395;28;20029;-84
2023/03/21 05:27:52;;;;;;;16.17;9.40;;;;;;;;;;5016085;28;20029;-84
2023/03/21 05:30:19;;;;;;;13.77;8.93;;;;;;;;;;5008518;28;20381;-83
2023/03/21 05:32:45;;;;;;;12.68;8.80;;;;;;;;;;4998049;28;20071;-83
2023/03/21 05:35:12;;;;;;;18.73;9.10;;;;;;;;;;5008452;28;20105;-81
2023/03/21 05:37:38;;;;;;;12.98;8.75;;;;;;;;;;5000681;28;20022;-83
2023/03/21 05:40:06;;;;;;;14.10;9.10;;;;;;;;;;5015331;28;20026;-80
2023/03/21 05:42:32;;;;;;;14.82;9.18;;;;;;;;;;5012420;28;20022;-83
2023/03/21 05:44:58;;;;;;;13.65;8.80;;;;;;;;;;5018245;28;20030;-82
2023/03/21 05:47:24;;;;;;;12.73;8.93;;;;;;;;;;5009837;28;20030;-82
2023/03/21 05:49:51;;;;;;;12.85;8.32;;;;;;;;;;5006896;28;20092;-83
2023/03/21 05:52:17;;;;;;;15.45;9.60;;;;;;;;;;5013688;28;20022;-82
2023/03/21 05:54:43;;;;;;;13.82;9.43;;;;;;;;;;5014811;28;20030;-81
2023/03/21 05:57:09;;;;;;;12.18;9.10;;;;;;;;;;5011665;28;20030;-82
2023/03/21 05:59:35;;;;;;;17.15;9.85;;;;;;;;;;5005876;28;20026;-83
2023/03/21 06:02:01;;;;;;;12.02;8.63;;;;;;;;;;5007836;28;20047;-82
2023/03/21 06:04:27;;;;;;;13.43;8.90;;;;;;;;;;5014701;28;20018;-82
2023/03/21 06:06:53;;;;;;;13.15;9.00;;;;;;;;;;5011384;28;20029;-82
2023/03/21 06:09:21;;;;;;;14.68;9.80;;;;;;;;;;5010404;28;20049;-82
2023/03/21 06:11:49;;;;;;;13.02;9.30;;;;;;;;;;5012866;28;20045;-82
2023/03/21 06:14:16;;;;;;;14.68;9.50;;;;;;;;;;5012729;28;20053;-81
2023/03/21 06:16:42;;;;;;;13.55;9.18;;;;;;;;;;5008570;28;20052;-81
2023/03/21 06:19:08;;;;;;;16.58;10.05;;;;;;;;;;5015295;28;20054;-82
2023/03/21 06:21:34;;;;;;;15.15;9.80;;;;;;;;;;5013000;28;20027;-81
2023/03/21 06:24:00;;;;;;;14.82;10.07;;;;;;;;;;5017076;28;20029;-81
2023/03/21 06:26:26;;;;;;;12.85;8.95;;;;;;;;;;5013409;28;20030;-79
2023/03/21 06:28:53;;;;;;;14.23;8.80;;;;;;;;;;5011525;28;20026;-81
2023/03/21 06:31:21;;;;;;;14.55;9.38;;;;;;;;;;5010366;28;20085;-82
2023/03/21 06:33:47;;;;;;;13.77;9.23;;;;;;;;;;5019494;28;20482;-80
2023/03/21 06:36:14;;;;;;;14.38;9.40;;;;;;;;;;5012259;28;20117;-82
2023/03/21 06:38:40;;;;;;;14.82;8.68;;;;;;;;;;5008822;28;20375;-81
2023/03/21 06:41:06;;;;;;;11.60;8.95;;;;;;;;;;5021235;28;20506;-81
2023/03/21 06:43:33;;;;;;;12.52;8.23;;;;;;;;;;5018110;28;20088;-82
2023/03/21 06:45:59;;;;;;;13.68;8.27;;;;;;;;;;5009351;28;20042;-81
2023/03/21 06:48:26;;;;;;;12.90;8.55;;;;;;;;;;5013257;28;20085;-82
2023/03/21 06:50:52;;;;;;;14.70;8.88;;;;;;;;;;5004930;28;20046;-82
2023/03/21 06:53:23;;;;;;;13.20;8.68;;;;;;;;;;5007808;28;20041;-81
2023/03/21 06:55:50;;;;;;;13.15;8.23;;;;;;;;;;5014893;28;20382;-81
2023/03/21 06:58:16;;;;;;;11.50;8.20;;;;;;;;;;5006852;28;20011;-80
2023/03/21 07:00:43;;;;;;;13.38;7.97;;;;;;;;;;5020199;28;20025;-82
2023/03/21 07:03:10;;;;;;;11.73;7.97;;;;;;;;;;5017115;28;20387;-83
2023/03/21 07:05:36;;;;;;;12.10;7.50;;;;;;;;;;5015663;28;20022;-82
2023/03/21 07:08:03;;;;;;;10.32;7.35;;;;;;;;;;5007442;28;20047;-82
2023/03/21 07:10:29;;;;;;;11.95;6.50;;;;;;;;;;5002396;28;20474;-82
2023/03/21 07:12:55;;;;;;;9.45;6.85;;;;;;;;;;4999895;28;20022;-81
2023/03/21 07:15:21;;;;;;;11.02;7.15;;;;;;;;;;5001252;28;20030;-82
2023/03/21 07:17:47;;;;;;;10.73;6.60;;;;;;;;;;5004899;28;20026;-82
2023/03/21 07:20:13;;;;;;;9.73;7.07;;;;;;;;;;4999549;28;20089;-82
2023/03/21 07:22:39;;;;;;;9.38;6.75;;;;;;;;;;4998183;28;20038;-82
2023/03/21 07:25:06;;;;;;;10.65;6.70;;;;;;;;;;4997994;28;20053;-83
2023/03/21 07:27:32;;;;;;;8.98;6.10;;;;;;;;;;5003179;28;20021;-82
2023/03/21 07:29:59;;;;;;;9.10;6.00;;;;;;;;;;5019414;28;20026;-82
2023/03/21 07:32:29;;;;;;;10.80;6.57;;;;;;;;;;5015673;28;20045;-81
2023/03/21 07:34:55;;;;;;;9.40;6.38;;;;;;;;;;5017935;28;20029;-81
2023/03/21 07:37:22;;;;;;;8.25;6.00;;;;;;;;;;5014439;28;20072;-83
2023/03/21 07:39:48;;;;;;;10.02;6.32;;;;;;;;;;4999402;28;20046;-82
2023/03/21 07:42:14;;;;;;;9.48;6.28;;;;;;;;;;4998482;28;20022;-82
2023/03/21 07:44:41;;;;;;;9.95;6.45;;;;;;;;;;5000700;28;20032;-83
2023/03/21 07:47:07;;;;;;;8.82;6.82;;;;;;;;;;5002539;28;20026;-81
2023/03/21 07:49:33;;;;;;;8.75;6.05;;;;;;;;;;5001971;28;20041;-81
2023/03/21 07:52:01;;;;;;;8.38;5.35;;;;;;;;;;5000796;28;20030;-83
2023/03/21 07:54:27;;;;;;;12.50;5.85;;;;;;;;;;5006027;28;20030;-82
2023/03/21 07:56:54;;;;;;;9.00;5.78;;;;;;;;;;5001403;28;20022;-82
2023/03/21 07:59:20;;;;;;;9.15;5.82;;;;;;;;;;5015916;28;20721;-83
2023/03/21 08:01:46;;;;;;;8.60;6.00;;;;;;;;;;5017454;28;20046;-84
2023/03/21 08:04:12;;;;;;;8.57;5.88;;;;;;;;;;5016807;28;20037;-83
2023/03/21 08:06:38;;;;;;;8.02;5.88;;;;;;;;;;5018299;28;20165;-81
2023/03/21 08:09:05;;;;;;;9.35;6.30;;;;;;;;;;5018138;28;20026;-83
2023/03/21 08:11:31;;;;;;;10.10;6.47;;;;;;;;;;5000721;28;20462;-83
2023/03/21 08:13:57;;;;;;;10.65;6.60;;;;;;;;;;4999513;28;20030;-83
2023/03/21 08:16:23;;;;;;;9.50;6.85;;;;;;;;;;5014231;28;20026;-83
2023/03/21 08:18:49;;;;;;;9.40;6.63;;;;;;;;;;5010689;28;20026;-83
2023/03/21 08:21:16;;;;;;;8.55;6.20;;;;;;;;;;5000123;28;20023;-83
2023/03/21 08:23:42;;;;;;;9.77;6.53;;;;;;;;;;4999814;28;20041;-83
2023/03/21 08:26:09;;;;;;;10.55;6.10;;;;;;;;;;4998316;28;20031;-83
2023/03/21 08:28:36;;;;;;;13.23;6.82;;;;;;;;;;4999230;28;20110;-83
2023/03/21 08:31:12;;;;;;;10.25;6.15;;;;;;;;;;4998112;28;20026;-82
2023/03/21 08:33:38;;;;;;;8.27;6.15;;;;;;;;;;4997850;28;20041;-82
2023/03/21 08:36:05;;;;;;;8.20;5.93;;;;;;;;;;4998706;28;20019;-82
2023/03/21 08:38:32;;;;;;;9.80;6.70;;;;;;;;;;4998411;28;20038;-83
2023/03/21 08:41:01;;;;;;;11.30;6.82;;;;;;;;;;4999825;28;20042;-83
2023/03/21 08:43:28;;;;;;;9.98;5.80;;;;;;;;;;4998829;28;20030;-83
2023/03/21 08:45:55;;;;;;;9.70;5.60;;;;;;;;;;5001403;28;20144;-83
2023/03/21 08:48:21;;;;;;;14.57;6.32;;;;;;;;;;4997723;28;20156;-82
2023/03/21 08:50:47;;;;;;;12.15;6.47;;;;;;;;;;5011374;28;20458;-83
2023/03/21 08:53:13;;;;;;;11.02;6.35;;;;;;;;;;5016696;28;20482;-83
2023/03/21 08:55:39;;;;;;;10.77;6.80;;;;;;;;;;5016910;28;20018;-83
2023/03/21 08:58:06;;;;;;;9.57;6.18;;;;;;;;;;4999170;28;20026;-82
2023/03/21 09:00:32;;;;;;;11.43;7.45;;;;;;;;;;5000727;28;20019;-83
2023/03/21 09:02:58;;;;;;;11.57;7.45;;;;;;;;;;4998669;28;20070;-83
2023/03/21 09:05:25;;;;;;;9.43;6.65;;;;;;;;;;4998706;28;20022;-82
2023/03/21 09:07:52;;;;;;;10.80;7.18;;;;;;;;;;5007697;28;20033;-83
2023/03/21 09:10:20;;;;;;;13.52;6.97;;;;;;;;;;4998872;28;20034;-83
2023/03/21 09:12:46;;;;;;;10.55;6.90;;;;;;;;;;4998255;28;20036;-82
2023/03/21 09:15:13;;;;;;;8.30;5.50;;;;;;;;;;4998304;28;20040;-83
2023/03/21 09:17:43;;;;;;;11.55;6.40;;;;;;;;;;5004042;28;20017;-83
2023/03/21 09:20:20;;;;;;;9.98;5.55;;;;;;;;;;5000296;28;20023;-83
2023/03/21 09:22:46;;;;;;;9.13;5.70;;;;;;;;;;5003015;28;20497;-83
2023/03/21 09:25:14;;;;;;;8.20;5.22;;;;;;;;;;5001584;28;20038;-82
2023/03/21 09:27:41;;;;;;;8.00;5.13;;;;;;;;;;5009746;28;20022;-83
2023/03/21 09:30:09;;;;;;;8.07;5.45;;;;;;;;;;5001872;28;20479;-83
2023/03/21 09:32:36;;;;;;;8.88;5.85;;;;;;;;;;5016802;28;20030;-82
2023/03/21 09:35:04;;;;;;;9.20;4.97;;;;;;;;;;5007265;28;20026;-82
2023/03/21 09:37:31;;;;;;;8.43;5.20;;;;;;;;;;4996395;28;20563;-82
2023/03/21 09:39:57;;;;;;;9.00;5.60;;;;;;;;;;5001746;28;20224;-81
2023/03/21 09:42:43;;;;;;;8.60;5.38;;;;;;;;;;5014837;28;20030;-83
2023/03/21 09:45:16;;;;;;;9.00;5.97;;;;;;;;;;5021418;28;20444;-82
2023/03/21 09:47:52;;;;;;;9.15;6.05;;;;;;;;;;5015913;28;20090;-81
2023/03/21 09:50:26;;;;;;;8.30;4.68;;;;;;;;;;5001723;28;20224;-82
2023/03/21 09:52:56;;;;;;;8.27;5.15;;;;;;;;;;5000727;28;20121;-83
2023/03/21 09:55:25;;;;;;;8.93;5.45;;;;;;;;;;5003959;28;20057;-83
2023/03/21 09:57:56;;;;;;;8.63;5.20;;;;;;;;;;5007708;28;20029;-84
2023/03/21 10:00:28;;;;;;;7.10;4.72;;;;;;;;;;5001048;28;20030;-83
2023/03/21 10:02:58;;;;;;;7.53;4.20;;;;;;;;;;5002407;28;20038;-82
2023/03/21 10:05:25;;;;;;;8.27;4.90;;;;;;;;;;5004345;28;20046;-83
2023/03/21 10:08:03;;;;;;;7.60;4.40;;;;;;;;;;5001088;28;20026;-83
2023/03/21 10:10:34;;;;;;;6.68;3.65;;;;;;;;;;5002089;28;20029;-83
2023/03/21 10:13:00;;;;;;;6.20;3.67;;;;;;;;;;5010125;28;20482;-83
2023/03/21 10:15:26;;;;;;;7.75;3.95;;;;;;;;;;5006095;28;20061;-82
2023/03/21 10:17:55;;;;;;;6.07;3.25;;;;;;;;;;5007866;28;20018;-82
2023/03/21 10:20:21;;;;;;;6.53;4.28;;;;;;;;;;5014945;28;20025;-81
2023/03/21 10:22:48;;;;;;;6.72;4.10;;;;;;;;;;5018873;28;20029;-82
2023/03/21 10:25:17;;;;;;;7.22;3.85;;;;;;;;;;5017456;28;20486;-81
2023/03/21 10:27:44;;;;;;;7.90;3.95;;;;;;;;;;5033129;28;20026;-82
2023/03/21 10:30:18;;;;;;;6.45;4.20;;;;;;;;;;5020915;28;20385;-82
2023/03/21 10:32:44;;;;;;;8.43;4.25;;;;;;;;;;5023526;28;20026;-81
2023/03/21 10:35:12;;;;;;;6.93;4.35;;;;;;;;;;5020463;28;20045;-83
2023/03/21 10:37:38;;;;;;;7.13;4.50;;;;;;;;;;5003667;28;20026;-83
2023/03/21 10:40:07;;;;;;;8.77;4.60;;;;;;;;;;5017919;28;20018;-83
2023/03/21 10:42:35;;;;;;;6.78;4.22;;;;;;;;;;5005814;28;20022;-82
2023/03/21 10:45:01;;;;;;;7.50;4.25;;;;;;;;;;5033229;28;20084;-82
2023/03/21 10:47:31;;;;;;;6.97;3.53;;;;;;;;;;5015185;28;20082;-82
2023/03/21 10:50:08;;;;;;;8.32;4.88;;;;;;;;;;5019314;28;20053;-82
2023/03/21 10:52:35;;;;;;;8.52;5.13;;;;;;;;;;5010170;28;20035;-82
2023/03/21 10:55:24;;;;;;;8.98;4.15;;;;;;;;;;5011790;28;20073;-82
2023/03/21 10:57:58;;;;;;;8.18;4.45;;;;;;;;;;5000183;28;20126;-82
2023/03/21 11:00:30;;;;;;;8.48;4.50;;;;;;;;;;5000350;28;20010;-83
2023/03/21 11:02:57;;;;;;;6.88;4.00;;;;;;;;;;5011108;28;20038;-83
2023/03/21 11:05:37;;;;;;;6.72;3.92;;;;;;;;;;5019799;28;20022;-83
2023/03/21 11:08:10;;;;;;;7.28;4.18;;;;;;;;;;5019235;28;20478;-82
2023/03/21 11:10:50;;;;;;;7.05;4.13;;;;;;;;;;5018097;28;20033;-84
2023/03/21 11:13:18;;;;;;;6.70;3.83;;;;;;;;;;5013604;28;20026;-82
2023/03/21 11:15:51;;;;;;;6.63;4.00;;;;;;;;;;5009362;28;20042;-83
2023/03/21 11:18:22;;;;;;;7.03;3.78;;;;;;;;;;5004080;28;20069;-83
2023/03/21 11:20:53;;;;;;;7.45;4.50;;;;;;;;;;5002783;28;20097;-81
2023/03/21 11:23:20;;;;;;;7.07;4.10;;;;;;;;;;5006245;28;20025;-82
2023/03/21 11:25:48;;;;;;;7.20;3.95;;;;;;;;;;5008825;28;20022;-84
2023/03/21 11:28:24;;;;;;;6.20;3.67;;;;;;;;;;5013680;28;20200;-82
2023/03/21 11:30:50;;;;;;;6.82;4.13;;;;;;;;;;5018297;28;20057;-82
2023/03/21 11:33:18;;;;;;;6.00;3.22;;;;;;;;;;5020250;28;20045;-82
2023/03/21 11:35:57;;;;;;;7.18;3.20;;;;;;;;;;5017116;28;20029;-82
2023/03/21 11:38:25;;;;;;;6.57;3.17;;;;;;;;;;5020753;28;20593;-83
2023/03/21 11:40:53;;;;;;;5.57;2.92;;;;;;;;;;5018491;28;20034;-82
2023/03/21 11:43:19;;;;;;;6.13;3.00;;;;;;;;;;5013866;28;20390;-83
2023/03/21 11:45:58;;;;;;;5.63;3.30;;;;;;;;;;5001582;28;20033;-82
2023/03/21 11:48:24;;;;;;;5.47;3.15;;;;;;;;;;5013466;28;20029;-81
2023/03/21 11:50:52;;;;;;;6.03;3.40;;;;;;;;;;5009610;28;20052;-82
2023/03/21 11:53:27;;;;;;;5.72;3.60;;;;;;;;;;5022229;28;20028;-82
2023/03/21 11:56:04;;;;;;;6.25;3.60;;;;;;;;;;5015310;28;20026;-82
2023/03/21 11:58:40;;;;;;;6.95;3.95;;;;;;;;;;4998813;28;20426;-82
2023/03/21 12:01:32;;;;;;;7.38;4.15;;;;;;;;;;4998787;28;20030;-82
2023/03/21 12:03:58;;;;;;;7.93;3.50;;;;;;;;;;4998826;28;20402;-82
2023/03/21 12:06:56;;;;;;;5.90;3.35;;;;;;;;;;4999155;28;20019;-81
2023/03/21 12:09:22;;;;;;;6.20;3.40;;;;;;;;;;4977203;28;20190;-81
2023/03/21 12:12:11;;;;;;;6.40;3.78;;;;;;;;;;4976410;28;20455;-81
2023/03/21 12:14:45;;;;;;;7.35;3.40;;;;;;;;;;4976906;28;20039;-81
2023/03/21 12:17:17;;;;;;;7.20;3.80;;;;;;;;;;4996285;28;20105;-80
2023/03/21 12:19:51;;;;;;;6.38;3.63;;;;;;;;;;4979738;28;20047;-82
2023/03/21 12:22:17;;;;;;;7.57;3.78;;;;;;;;;;4993625;28;20065;-83
2023/03/21 12:24:57;;;;;;;5.63;3.17;;;;;;;;;;4981069;28;20043;-82
2023/03/21 12:27:41;;;;;;;5.63;2.97;;;;;;;;;;4995170;28;20230;-82
2023/03/21 12:30:33;;;;;;;5.70;3.08;;;;;;;;;;4976639;28;20510;-82
2023/03/21 12:33:12;;;;;;;6.30;3.10;;;;;;;;;;4976331;28;20078;-82
2023/03/21 12:35:54;;;;;;;5.43;3.05;;;;;;;;;;4978556;28;20031;-82
2023/03/21 12:38:25;;;;;;;5.57;2.72;;;;;;;;;;4992087;28;20042;-81
2023/03/21 12:41:01;;;;;;;5.57;3.00;;;;;;;;;;4993414;28;20441;-82
2023/03/21 12:43:27;;;;;;;5.35;2.95;;;;;;;;;;4977302;28;20030;-82
2023/03/21 12:45:57;;;;;;;5.72;2.83;;;;;;;;;;5006550;28;20136;-82
2023/03/21 12:48:27;;;;;;;5.68;2.50;;;;;;;;;;5012794;28;20026;-82
2023/03/21 12:50:54;;;;;;;7.38;2.70;;;;;;;;;;5023825;28;20094;-83
2023/03/21 12:53:39;;;;;;;7.55;3.17;;;;;;;;;;5006504;28;20029;-83
2023/03/21 12:56:08;;;;;;;8.50;4.20;;;;;;;;;;5017282;28;20022;-83
2023/03/21 12:58:39;;;;;;;6.22;2.70;;;;;;;;;;5009942;28;20269;-82
2023/03/21 13:01:07;;;;;;;5.30;2.92;;;;;;;;;;4997156;28;20126;-82
2023/03/21 13:03:38;;;;;;;4.65;2.42;;;;;;;;;;4999782;28;20046;-82
2023/03/21 13:06:05;;;;;;;5.68;2.97;;;;;;;;;;5008007;28;20041;-82
2023/03/21 13:08:35;;;;;;;5.93;3.28;;;;;;;;;;5015339;28;20108;-82
2023/03/21 13:11:02;;;;;;;6.07;3.03;;;;;;;;;;5018066;28;20398;-82
2023/03/21 13:13:34;;;;;;;10.30;4.03;;;;;;;;;;5012885;28;20427;-82
2023/03/21 13:16:00;;;;;;;;;;;;;;;;;;5014594;28;20018;-82
2023/03/21 13:18:45;;;;;;;14.52;3.78;;;;;;;;;;5004640;28;19916;-83
2023/03/21 13:21:11;;;;;;;8.20;2.85;;;;;;;;;;5007225;28;20454;-82
2023/03/21 13:23:38;;;;;;;5.10;3.13;;;;;;;;;;5015025;28;20038;-82
2023/03/21 13:26:11;;;;;;;6.35;2.60;;;;;;;;;;5016712;28;20340;-82
2023/03/21 13:28:39;;;;;;;6.13;2.90;;;;;;;;;;5013238;28;20105;-83
2023/03/21 13:31:16;;;;;;;5.97;2.80;;;;;;;;;;5015301;28;20030;-83
2023/03/21 13:33:45;;;;;;;5.55;2.80;;;;;;;;;;5013661;28;20032;-82
2023/03/21 13:36:22;;;;;;;4.95;2.95;;;;;;;;;;5009977;28;20018;-82
2023/03/21 13:38:53;;;;;;;5.80;3.00;;;;;;;;;;5019434;28;20374;-82
2023/03/21 13:41:29;;;;;;;5.95;3.13;;;;;;;;;;5017891;28;20410;-82
2023/03/21 13:44:15;;;;;;;4.90;2.90;;;;;;;;;;5013114;28;20018;-82
2023/03/21 13:46:50;;;;;;;4.18;2.40;;;;;;;;;;5004775;28;20041;-83
2023/03/21 13:49:27;;;;;;;5.53;2.95;;;;;;;;;;4998829;28;20403;-83
2023/03/21 13:51:58;;;;;;;5.20;3.13;;;;;;;;;;5012703;28;20164;-83
2023/03/21 13:54:43;;;;;;;6.30;2.95;;;;;;;;;;5004170;28;20030;-83
2023/03/21 13:57:20;;;;;;;6.25;3.58;;;;;;;;;;5001576;28;20026;-83
2023/03/21 13:59:47;;;;;;;5.03;3.10;;;;;;;;;;4996681;28;20491;-83
2023/03/21 14:02:16;;;;;;;4.82;2.60;;;;;;;;;;4998579;28;20516;-83
2023/03/21 14:04:43;;;;;;;6.60;2.70;;;;;;;;;;4996998;28;20034;-82
2023/03/21 14:07:13;;;;;;;5.43;2.83;;;;;;;;;;5000111;28;20057;-82
2023/03/21 14:09:47;;;;;;;5.28;2.47;;;;;;;;;;5011224;28;20037;-83
2023/03/21 14:12:15;;;;;;;6.30;3.10;;;;;;;;;;5005470;28;20061;-83
2023/03/21 14:15:10;;;;;;;5.20;2.65;;;;;;;;;;4999064;28;20085;-83
2023/03/21 14:17:36;;;;;;;5.88;2.85;;;;;;;;;;4980775;28;20046;-82
2023/03/21 14:20:11;;;;;;;4.43;2.50;;;;;;;;;;4999343;28;20018;-83
2023/03/21 14:22:41;;;;;;;5.43;3.42;;;;;;;;;;5000258;28;20026;-81
2023/03/21 14:25:17;;;;;;;6.68;3.20;;;;;;;;;;5013803;28;20030;-81
2023/03/21 14:27:45;;;;;;;4.72;2.83;;;;;;;;;;4999609;28;20034;-82
2023/03/21 14:30:18;;;;;;;5.60;2.90;;;;;;;;;;5004716;28;20420;-82
2023/03/21 14:32:46;;;;;;;5.75;2.80;;;;;;;;;;5000256;28;20026;-82
2023/03/21 14:35:12;;;;;;;4.82;2.72;;;;;;;;;;4999835;28;20076;-82
2023/03/21 14:37:40;;;;;;;5.90;3.20;;;;;;;;;;5001162;28;20022;-83
2023/03/21 14:40:19;;;;;;;6.30;3.08;;;;;;;;;;5020076;28;20018;-82
2023/03/21 14:42:46;;;;;;;5.13;2.60;;;;;;;;;;5019681;28;20030;-82
2023/03/21 14:45:16;;;;;;;4.85;2.75;;;;;;;;;;5020430;28;20029;-81
2023/03/21 14:47:53;;;;;;;5.35;2.85;;;;;;;;;;4998439;28;20481;-81